sensor_id;sensor_type;location;lat;lon;timestamp;temperature;humidity
6822;DHT22;3449;48.728;8.968;2022-12-15T00:01:03;-3.00;99.90
6822;DHT22;3449;48.728;8.968;2022-12-15T00:03:47;-3.00;99.90
6822;DHT22;3449;48.728;8.968;2022-12-15T00:06:32;-3.00;99.90
6822;DHT22;3449;48.728;8.968;2022-12-15T00:09:17;-3.00;99.90
6822;DHT22;3449;48.728;8.968;2022-12-15T00:12:02;-3.00;99.90
6822;DHT22;3449;48.728;8.968;2022-12-15T00:14:46;-3.00;99.90
6822;DHT22;3449;48.728;8.968;2022-12-15T00:17:31;-3.00;99.90
6822;DHT22;3449;48.728;8.968;2022-12-15T00:20:15;-3.00;99.90
6822;DHT22;3449;48.728;8.968;2022-12-15T00:23:06;-3.00;99.90
6822;DHT22;3449;48.728;8.968;2022-12-15T00:25:51;-3.00;99.90
6822;DHT22;3449;48.728;8.968;2022-12-15T00:28:36;-3.00;99.90
6822;DHT22;3449;48.728;8.968;2022-12-15T00:31:20;-3.00;99.90
6822;DHT22;3449;48.728;8.968;2022-12-15T00:34:04;-3.00;99.90
6822;DHT22;3449;48.728;8.968;2022-12-15T00:36:49;-3.00;99.90
6822;DHT22;3449;48.728;8.968;2022-12-15T00:39:33;-3.00;99.90
6822;DHT22;3449;48.728;8.968;2022-12-15T00:42:01;-3.00;99.90
6822;DHT22;3449;48.728;8.968;2022-12-15T00:44:28;-2.90;99.90
6822;DHT22;3449;48.728;8.968;2022-12-15T00:46:55;-3.00;99.90
6822;DHT22;3449;48.728;8.968;2022-12-15T00:49:21;-3.00;99.90
6822;DHT22;3449;48.728;8.968;2022-12-15T00:52:06;-2.90;99.90
6822;DHT22;3449;48.728;8.968;2022-12-15T00:54:50;-2.90;99.90
6822;DHT22;3449;48.728;8.968;2022-12-15T00:57:35;-2.90;99.90
6822;DHT22;3449;48.728;8.968;2022-12-15T01:00:19;-2.90;99.90
6822;DHT22;3449;48.728;8.968;2022-12-15T01:03:09;-2.90;99.90
6822;DHT22;3449;48.728;8.968;2022-12-15T01:05:54;-2.90;99.90
6822;DHT22;3449;48.728;8.968;2022-12-15T01:08:38;-2.90;99.90
6822;DHT22;3449;48.728;8.968;2022-12-15T01:11:22;-2.90;99.90
6822;DHT22;3449;48.728;8.968;2022-12-15T01:14:07;-2.90;99.90
6822;DHT22;3449;48.728;8.968;2022-12-15T01:16:52;-2.90;99.90
6822;DHT22;3449;48.728;8.968;2022-12-15T01:19:36;-2.90;99.90
6822;DHT22;3449;48.728;8.968;2022-12-15T01:22:20;-2.90;99.90
6822;DHT22;3449;48.728;8.968;2022-12-15T01:24:47;-2.90;99.90
6822;DHT22;3449;48.728;8.968;2022-12-15T01:27:14;-2.90;99.90
6822;DHT22;3449;48.728;8.968;2022-12-15T01:29:43;-2.90;99.90
6822;DHT22;3449;48.728;8.968;2022-12-15T01:32:09;-2.90;99.90
6822;DHT22;3449;48.728;8.968;2022-12-15T01:34:37;-2.90;99.90
6822;DHT22;3449;48.728;8.968;2022-12-15T01:37:04;-2.90;99.90
6822;DHT22;3449;48.728;8.968;2022-12-15T01:39:31;-2.90;99.90
6822;DHT22;3449;48.728;8.968;2022-12-15T01:42:12;-2.90;99.90
6822;DHT22;3449;48.728;8.968;2022-12-15T01:44:39;-2.90;99.90
6822;DHT22;3449;48.728;8.968;2022-12-15T01:47:10;-2.90;99.90
6822;DHT22;3449;48.728;8.968;2022-12-15T01:49:39;-2.90;99.90
6822;DHT22;3449;48.728;8.968;2022-12-15T01:52:08;-2.90;99.90
6822;DHT22;3449;48.728;8.968;2022-12-15T01:54:39;-2.90;99.90
6822;DHT22;3449;48.728;8.968;2022-12-15T01:57:09;-2.80;99.90
6822;DHT22;3449;48.728;8.968;2022-12-15T01:59:43;-2.90;99.90
6822;DHT22;3449;48.728;8.968;2022-12-15T02:02:17;-2.90;99.90
6822;DHT22;3449;48.728;8.968;2022-12-15T02:04:46;-2.90;99.90
6822;DHT22;3449;48.728;8.968;2022-12-15T02:07:15;-2.90;99.90
6822;DHT22;3449;48.728;8.968;2022-12-15T02:09:43;-2.90;99.90
6822;DHT22;3449;48.728;8.968;2022-12-15T02:12:19;-3.00;99.90
6822;DHT22;3449;48.728;8.968;2022-12-15T02:15:05;-3.00;99.90
6822;DHT22;3449;48.728;8.968;2022-12-15T02:17:45;-3.00;99.90
6822;DHT22;3449;48.728;8.968;2022-12-15T02:20:31;-2.90;99.90
6822;DHT22;3449;48.728;8.968;2022-12-15T02:23:25;-2.90;99.90
6822;DHT22;3449;48.728;8.968;2022-12-15T02:26:16;-2.90;99.90
6822;DHT22;3449;48.728;8.968;2022-12-15T02:28:55;-2.90;99.90
6822;DHT22;3449;48.728;8.968;2022-12-15T02:31:32;-2.90;99.90
6822;DHT22;3449;48.728;8.968;2022-12-15T02:34:20;-2.90;99.90
6822;DHT22;3449;48.728;8.968;2022-12-15T02:36:53;-2.90;99.90
6822;DHT22;3449;48.728;8.968;2022-12-15T02:39:22;-2.90;99.90
6822;DHT22;3449;48.728;8.968;2022-12-15T02:41:50;-2.90;99.90
6822;DHT22;3449;48.728;8.968;2022-12-15T02:44:20;-2.90;99.90
6822;DHT22;3449;48.728;8.968;2022-12-15T02:47:07;-2.90;99.90
6822;DHT22;3449;48.728;8.968;2022-12-15T02:49:45;-2.90;99.90
6822;DHT22;3449;48.728;8.968;2022-12-15T02:52:24;-2.90;99.90
6822;DHT22;3449;48.728;8.968;2022-12-15T02:55:10;-2.80;99.90
6822;DHT22;3449;48.728;8.968;2022-12-15T02:57:56;-2.90;99.90
6822;DHT22;3449;48.728;8.968;2022-12-15T03:00:27;-2.80;99.90
6822;DHT22;3449;48.728;8.968;2022-12-15T03:02:57;-2.90;99.90
6822;DHT22;3449;48.728;8.968;2022-12-15T03:05:25;-2.90;99.90
6822;DHT22;3449;48.728;8.968;2022-12-15T03:07:53;-2.90;99.90
6822;DHT22;3449;48.728;8.968;2022-12-15T03:10:22;-2.90;99.90
6822;DHT22;3449;48.728;8.968;2022-12-15T03:12:49;-2.90;99.90
6822;DHT22;3449;48.728;8.968;2022-12-15T03:15:17;-2.90;99.90
6822;DHT22;3449;48.728;8.968;2022-12-15T03:17:44;-2.90;99.90
6822;DHT22;3449;48.728;8.968;2022-12-15T03:20:12;-2.90;99.90
6822;DHT22;3449;48.728;8.968;2022-12-15T03:22:40;-2.90;99.90
6822;DHT22;3449;48.728;8.968;2022-12-15T03:25:07;-2.90;99.90
6822;DHT22;3449;48.728;8.968;2022-12-15T03:27:34;-3.00;99.90
6822;DHT22;3449;48.728;8.968;2022-12-15T03:30:03;-3.00;99.90
6822;DHT22;3449;48.728;8.968;2022-12-15T03:32:30;-3.00;99.90
6822;DHT22;3449;48.728;8.968;2022-12-15T03:34:57;-3.00;99.90
6822;DHT22;3449;48.728;8.968;2022-12-15T03:37:27;-3.00;99.90
6822;DHT22;3449;48.728;8.968;2022-12-15T03:39:54;-3.00;99.90
6822;DHT22;3449;48.728;8.968;2022-12-15T03:42:20;-3.00;99.90
6822;DHT22;3449;48.728;8.968;2022-12-15T03:45:08;-2.90;99.90
6822;DHT22;3449;48.728;8.968;2022-12-15T03:47:39;-3.00;99.90
6822;DHT22;3449;48.728;8.968;2022-12-15T03:50:07;-3.00;99.90
6822;DHT22;3449;48.728;8.968;2022-12-15T03:52:36;-3.00;99.90
6822;DHT22;3449;48.728;8.968;2022-12-15T03:55:03;-2.90;99.90
6822;DHT22;3449;48.728;8.968;2022-12-15T03:57:30;-2.90;99.90
6822;DHT22;3449;48.728;8.968;2022-12-15T03:59:57;-2.90;99.90
6822;DHT22;3449;48.728;8.968;2022-12-15T04:02:24;-2.90;99.90
6822;DHT22;3449;48.728;8.968;2022-12-15T04:04:51;-2.90;99.90
6822;DHT22;3449;48.728;8.968;2022-12-15T04:07:18;-2.90;99.90
6822;DHT22;3449;48.728;8.968;2022-12-15T04:09:46;-2.80;99.90
6822;DHT22;3449;48.728;8.968;2022-12-15T04:12:13;-2.80;99.90
6822;DHT22;3449;48.728;8.968;2022-12-15T04:14:40;-2.80;99.90
6822;DHT22;3449;48.728;8.968;2022-12-15T04:17:07;-2.80;99.90
6822;DHT22;3449;48.728;8.968;2022-12-15T04:19:34;-2.80;99.90
6822;DHT22;3449;48.728;8.968;2022-12-15T04:22:18;-2.80;99.90
6822;DHT22;3449;48.728;8.968;2022-12-15T04:24:47;-2.80;99.90
6822;DHT22;3449;48.728;8.968;2022-12-15T04:27:31;-2.80;99.90
6822;DHT22;3449;48.728;8.968;2022-12-15T04:30:15;-2.80;99.90
6822;DHT22;3449;48.728;8.968;2022-12-15T04:33:01;-2.80;99.90
6822;DHT22;3449;48.728;8.968;2022-12-15T04:35:46;-2.80;99.90
6822;DHT22;3449;48.728;8.968;2022-12-15T04:38:31;-2.80;99.90
6822;DHT22;3449;48.728;8.968;2022-12-15T04:41:17;-2.80;99.90
6822;DHT22;3449;48.728;8.968;2022-12-15T04:44:01;-2.80;99.90
6822;DHT22;3449;48.728;8.968;2022-12-15T04:46:46;-2.80;99.90
6822;DHT22;3449;48.728;8.968;2022-12-15T04:49:30;-2.80;99.90
6822;DHT22;3449;48.728;8.968;2022-12-15T04:52:14;-2.80;99.90
6822;DHT22;3449;48.728;8.968;2022-12-15T04:54:58;-2.90;99.90
6822;DHT22;3449;48.728;8.968;2022-12-15T04:57:44;-2.80;99.90
6822;DHT22;3449;48.728;8.968;2022-12-15T05:00:28;-2.80;99.90
6822;DHT22;3449;48.728;8.968;2022-12-15T05:03:12;-2.80;99.90
6822;DHT22;3449;48.728;8.968;2022-12-15T05:05:57;-2.80;99.90
6822;DHT22;3449;48.728;8.968;2022-12-15T05:08:41;-2.80;99.90
6822;DHT22;3449;48.728;8.968;2022-12-15T05:11:26;-2.80;99.90
6822;DHT22;3449;48.728;8.968;2022-12-15T05:14:11;-2.80;99.90
6822;DHT22;3449;48.728;8.968;2022-12-15T05:16:55;-2.80;99.90
6822;DHT22;3449;48.728;8.968;2022-12-15T05:19:39;-2.80;99.90
6822;DHT22;3449;48.728;8.968;2022-12-15T05:22:23;-2.80;99.90
6822;DHT22;3449;48.728;8.968;2022-12-15T05:25:08;-2.80;99.90
6822;DHT22;3449;48.728;8.968;2022-12-15T05:27:52;-2.80;99.90
6822;DHT22;3449;48.728;8.968;2022-12-15T05:30:38;-2.90;99.90
6822;DHT22;3449;48.728;8.968;2022-12-15T05:33:22;-2.90;99.90
6822;DHT22;3449;48.728;8.968;2022-12-15T05:35:49;-2.90;99.90
6822;DHT22;3449;48.728;8.968;2022-12-15T05:38:16;-2.90;99.90
6822;DHT22;3449;48.728;8.968;2022-12-15T05:40:43;-2.90;99.90
6822;DHT22;3449;48.728;8.968;2022-12-15T05:43:10;-2.90;99.90
6822;DHT22;3449;48.728;8.968;2022-12-15T05:45:38;-2.90;99.90
6822;DHT22;3449;48.728;8.968;2022-12-15T05:48:05;-2.90;99.90
6822;DHT22;3449;48.728;8.968;2022-12-15T05:50:32;-2.90;99.90
6822;DHT22;3449;48.728;8.968;2022-12-15T05:52:59;-2.90;99.90
6822;DHT22;3449;48.728;8.968;2022-12-15T05:55:26;-2.90;99.90
6822;DHT22;3449;48.728;8.968;2022-12-15T05:57:53;-2.90;99.90
6822;DHT22;3449;48.728;8.968;2022-12-15T06:00:21;-2.80;99.90
6822;DHT22;3449;48.728;8.968;2022-12-15T06:02:49;-2.80;99.90
6822;DHT22;3449;48.728;8.968;2022-12-15T06:05:16;-2.80;99.90
6822;DHT22;3449;48.728;8.968;2022-12-15T06:07:43;-2.80;99.90
6822;DHT22;3449;48.728;8.968;2022-12-15T06:10:10;-2.80;99.90
6822;DHT22;3449;48.728;8.968;2022-12-15T06:12:37;-2.90;99.90
6822;DHT22;3449;48.728;8.968;2022-12-15T06:15:04;-2.80;99.90
6822;DHT22;3449;48.728;8.968;2022-12-15T06:17:31;-2.90;99.90
6822;DHT22;3449;48.728;8.968;2022-12-15T06:20:00;-2.80;99.90
6822;DHT22;3449;48.728;8.968;2022-12-15T06:22:27;-2.80;99.90
6822;DHT22;3449;48.728;8.968;2022-12-15T06:24:54;-2.80;99.90
6822;DHT22;3449;48.728;8.968;2022-12-15T06:27:21;-2.80;99.90
6822;DHT22;3449;48.728;8.968;2022-12-15T06:29:48;-2.80;99.90
6822;DHT22;3449;48.728;8.968;2022-12-15T06:32:15;-2.80;99.90
6822;DHT22;3449;48.728;8.968;2022-12-15T06:34:42;-2.80;99.90
6822;DHT22;3449;48.728;8.968;2022-12-15T06:37:10;-2.70;99.90
6822;DHT22;3449;48.728;8.968;2022-12-15T06:39:37;-2.70;99.90
6822;DHT22;3449;48.728;8.968;2022-12-15T06:42:04;-2.70;99.90
6822;DHT22;3449;48.728;8.968;2022-12-15T06:44:30;-2.70;99.90
6822;DHT22;3449;48.728;8.968;2022-12-15T06:46:57;-2.70;99.90
6822;DHT22;3449;48.728;8.968;2022-12-15T06:49:24;-2.70;99.90
6822;DHT22;3449;48.728;8.968;2022-12-15T06:51:51;-2.70;99.90
6822;DHT22;3449;48.728;8.968;2022-12-15T06:54:19;-2.70;99.90
6822;DHT22;3449;48.728;8.968;2022-12-15T06:56:46;-2.80;99.90
6822;DHT22;3449;48.728;8.968;2022-12-15T06:59:13;-2.70;99.90
6822;DHT22;3449;48.728;8.968;2022-12-15T07:01:40;-2.70;99.90
6822;DHT22;3449;48.728;8.968;2022-12-15T07:04:07;-2.70;99.90
6822;DHT22;3449;48.728;8.968;2022-12-15T07:06:36;-2.70;99.90
6822;DHT22;3449;48.728;8.968;2022-12-15T07:09:04;-2.70;99.90
6822;DHT22;3449;48.728;8.968;2022-12-15T07:11:34;-2.70;99.90
6822;DHT22;3449;48.728;8.968;2022-12-15T07:14:01;-2.70;99.90
6822;DHT22;3449;48.728;8.968;2022-12-15T07:16:29;-2.70;99.90
6822;DHT22;3449;48.728;8.968;2022-12-15T07:18:56;-2.70;99.90
6822;DHT22;3449;48.728;8.968;2022-12-15T07:21:23;-2.60;99.90
6822;DHT22;3449;48.728;8.968;2022-12-15T07:23:50;-2.60;99.90
6822;DHT22;3449;48.728;8.968;2022-12-15T07:26:17;-2.60;99.90
6822;DHT22;3449;48.728;8.968;2022-12-15T07:28:45;-2.50;99.90
6822;DHT22;3449;48.728;8.968;2022-12-15T07:31:12;-2.50;99.90
6822;DHT22;3449;48.728;8.968;2022-12-15T07:33:39;-2.50;99.90
6822;DHT22;3449;48.728;8.968;2022-12-15T07:36:07;-2.40;99.90
6822;DHT22;3449;48.728;8.968;2022-12-15T07:38:34;-2.40;99.90
6822;DHT22;3449;48.728;8.968;2022-12-15T07:41:02;-2.40;99.90
6822;DHT22;3449;48.728;8.968;2022-12-15T07:43:29;-2.40;99.90
6822;DHT22;3449;48.728;8.968;2022-12-15T07:45:58;-2.40;99.90
6822;DHT22;3449;48.728;8.968;2022-12-15T07:48:25;-2.30;99.90
6822;DHT22;3449;48.728;8.968;2022-12-15T07:50:52;-2.30;99.90
6822;DHT22;3449;48.728;8.968;2022-12-15T07:53:23;-2.30;99.90
6822;DHT22;3449;48.728;8.968;2022-12-15T07:55:54;-2.30;99.90
6822;DHT22;3449;48.728;8.968;2022-12-15T07:58:21;-2.30;99.90
6822;DHT22;3449;48.728;8.968;2022-12-15T08:00:48;-2.30;99.90
6822;DHT22;3449;48.728;8.968;2022-12-15T08:03:16;-2.20;99.90
6822;DHT22;3449;48.728;8.968;2022-12-15T08:05:43;-2.20;99.90
6822;DHT22;3449;48.728;8.968;2022-12-15T08:08:10;-2.20;99.90
6822;DHT22;3449;48.728;8.968;2022-12-15T08:10:38;-2.10;99.90
6822;DHT22;3449;48.728;8.968;2022-12-15T08:13:05;-2.10;99.90
6822;DHT22;3449;48.728;8.968;2022-12-15T08:15:34;-2.00;99.90
6822;DHT22;3449;48.728;8.968;2022-12-15T08:18:01;-2.00;99.90
6822;DHT22;3449;48.728;8.968;2022-12-15T08:20:29;-2.00;99.90
6822;DHT22;3449;48.728;8.968;2022-12-15T08:22:56;-2.00;99.90
6822;DHT22;3449;48.728;8.968;2022-12-15T08:25:24;-1.90;99.90
6822;DHT22;3449;48.728;8.968;2022-12-15T08:27:53;-1.90;99.90
6822;DHT22;3449;48.728;8.968;2022-12-15T08:30:20;-1.80;99.90
6822;DHT22;3449;48.728;8.968;2022-12-15T08:32:47;-1.70;99.90
6822;DHT22;3449;48.728;8.968;2022-12-15T08:35:14;-1.70;99.90
6822;DHT22;3449;48.728;8.968;2022-12-15T08:37:42;-1.70;99.90
6822;DHT22;3449;48.728;8.968;2022-12-15T08:40:10;-1.60;99.90
6822;DHT22;3449;48.728;8.968;2022-12-15T08:42:37;-1.70;99.90
6822;DHT22;3449;48.728;8.968;2022-12-15T08:45:05;-1.60;99.90
6822;DHT22;3449;48.728;8.968;2022-12-15T08:47:32;-1.50;99.90
6822;DHT22;3449;48.728;8.968;2022-12-15T08:49:59;-1.50;99.90
6822;DHT22;3449;48.728;8.968;2022-12-15T08:52:26;-1.40;99.90
6822;DHT22;3449;48.728;8.968;2022-12-15T08:54:54;-1.40;99.90
6822;DHT22;3449;48.728;8.968;2022-12-15T08:57:21;-1.30;99.90
6822;DHT22;3449;48.728;8.968;2022-12-15T08:59:48;-1.30;99.90
6822;DHT22;3449;48.728;8.968;2022-12-15T09:02:15;-1.30;99.90
6822;DHT22;3449;48.728;8.968;2022-12-15T09:04:42;-1.30;99.90
6822;DHT22;3449;48.728;8.968;2022-12-15T09:07:09;-1.30;99.90
6822;DHT22;3449;48.728;8.968;2022-12-15T09:09:37;-1.30;99.90
6822;DHT22;3449;48.728;8.968;2022-12-15T09:12:05;-1.30;99.90
6822;DHT22;3449;48.728;8.968;2022-12-15T09:14:32;-1.30;99.90
6822;DHT22;3449;48.728;8.968;2022-12-15T09:16:59;-1.30;99.90
6822;DHT22;3449;48.728;8.968;2022-12-15T09:19:26;-1.20;99.90
6822;DHT22;3449;48.728;8.968;2022-12-15T09:21:53;-1.30;99.90
6822;DHT22;3449;48.728;8.968;2022-12-15T09:24:20;-1.20;99.90
6822;DHT22;3449;48.728;8.968;2022-12-15T09:26:48;-1.00;99.90
6822;DHT22;3449;48.728;8.968;2022-12-15T09:29:17;-0.80;99.90
6822;DHT22;3449;48.728;8.968;2022-12-15T09:31:44;-0.60;99.90
6822;DHT22;3449;48.728;8.968;2022-12-15T09:34:13;-0.60;99.90
6822;DHT22;3449;48.728;8.968;2022-12-15T09:36:40;-0.60;99.90
6822;DHT22;3449;48.728;8.968;2022-12-15T09:39:07;-0.50;99.90
6822;DHT22;3449;48.728;8.968;2022-12-15T09:41:37;-0.60;99.90
6822;DHT22;3449;48.728;8.968;2022-12-15T09:44:10;-0.50;99.90
6822;DHT22;3449;48.728;8.968;2022-12-15T09:46:47;-0.60;99.90
6822;DHT22;3449;48.728;8.968;2022-12-15T09:49:34;-0.70;99.90
6822;DHT22;3449;48.728;8.968;2022-12-15T09:52:04;-0.50;99.90
6822;DHT22;3449;48.728;8.968;2022-12-15T09:54:32;-0.30;99.90
6822;DHT22;3449;48.728;8.968;2022-12-15T09:57:03;-0.20;99.90
6822;DHT22;3449;48.728;8.968;2022-12-15T09:59:36;-0.40;99.90
6822;DHT22;3449;48.728;8.968;2022-12-15T10:02:28;-0.40;99.90
6822;DHT22;3449;48.728;8.968;2022-12-15T10:05:08;-0.40;99.90
6822;DHT22;3449;48.728;8.968;2022-12-15T10:07:39;-0.50;99.90
6822;DHT22;3449;48.728;8.968;2022-12-15T10:10:14;-0.60;99.90
6822;DHT22;3449;48.728;8.968;2022-12-15T10:12:44;-0.60;99.90
6822;DHT22;3449;48.728;8.968;2022-12-15T10:15:17;-0.50;99.90
6822;DHT22;3449;48.728;8.968;2022-12-15T10:17:49;-0.50;99.90
6822;DHT22;3449;48.728;8.968;2022-12-15T10:20:19;-0.60;99.90
6822;DHT22;3449;48.728;8.968;2022-12-15T10:22:47;-0.50;99.90
6822;DHT22;3449;48.728;8.968;2022-12-15T10:25:16;-0.50;99.90
6822;DHT22;3449;48.728;8.968;2022-12-15T10:28:06;-0.50;99.90
6822;DHT22;3449;48.728;8.968;2022-12-15T10:30:34;-0.60;99.90
6822;DHT22;3449;48.728;8.968;2022-12-15T10:33:16;-0.60;99.90
6822;DHT22;3449;48.728;8.968;2022-12-15T10:35:44;-0.70;99.90
6822;DHT22;3449;48.728;8.968;2022-12-15T10:38:21;-0.70;99.90
6822;DHT22;3449;48.728;8.968;2022-12-15T10:40:51;-0.70;99.90
6822;DHT22;3449;48.728;8.968;2022-12-15T10:43:28;-0.80;99.90
6822;DHT22;3449;48.728;8.968;2022-12-15T10:46:05;-0.80;99.90
6822;DHT22;3449;48.728;8.968;2022-12-15T10:48:34;-0.80;99.90
6822;DHT22;3449;48.728;8.968;2022-12-15T10:51:13;-0.70;99.90
6822;DHT22;3449;48.728;8.968;2022-12-15T10:53:43;-0.70;99.90
6822;DHT22;3449;48.728;8.968;2022-12-15T10:56:18;-0.80;99.90
6822;DHT22;3449;48.728;8.968;2022-12-15T10:58:48;-0.70;99.90
6822;DHT22;3449;48.728;8.968;2022-12-15T11:01:18;-0.80;99.90
6822;DHT22;3449;48.728;8.968;2022-12-15T11:03:47;-0.70;99.90
6822;DHT22;3449;48.728;8.968;2022-12-15T11:06:18;-0.50;99.90
6822;DHT22;3449;48.728;8.968;2022-12-15T11:08:47;-0.50;99.90
6822;DHT22;3449;48.728;8.968;2022-12-15T11:11:27;-0.50;99.90
6822;DHT22;3449;48.728;8.968;2022-12-15T11:14:14;-0.50;99.90
6822;DHT22;3449;48.728;8.968;2022-12-15T11:16:47;-0.40;99.90
6822;DHT22;3449;48.728;8.968;2022-12-15T11:19:29;-0.40;99.90
6822;DHT22;3449;48.728;8.968;2022-12-15T11:22:02;-0.40;99.90
6822;DHT22;3449;48.728;8.968;2022-12-15T11:24:35;-0.40;99.90
6822;DHT22;3449;48.728;8.968;2022-12-15T11:27:11;-0.30;99.90
6822;DHT22;3449;48.728;8.968;2022-12-15T11:29:48;-0.30;99.90
6822;DHT22;3449;48.728;8.968;2022-12-15T11:32:22;-0.20;99.90
6822;DHT22;3449;48.728;8.968;2022-12-15T11:34:51;-0.10;99.90
6822;DHT22;3449;48.728;8.968;2022-12-15T11:37:35;-0.20;99.90
6822;DHT22;3449;48.728;8.968;2022-12-15T11:40:18;-0.30;99.90
6822;DHT22;3449;48.728;8.968;2022-12-15T11:42:58;-0.20;99.90
6822;DHT22;3449;48.728;8.968;2022-12-15T11:45:33;-0.10;99.90
6822;DHT22;3449;48.728;8.968;2022-12-15T11:48:08;0.00;99.90
6822;DHT22;3449;48.728;8.968;2022-12-15T11:50:47;0.00;99.90
6822;DHT22;3449;48.728;8.968;2022-12-15T11:56:12;0.10;99.90
6822;DHT22;3449;48.728;8.968;2022-12-15T11:58:53;0.00;99.90
6822;DHT22;3449;48.728;8.968;2022-12-15T12:01:46;-0.20;99.90
6822;DHT22;3449;48.728;8.968;2022-12-15T12:04:20;-0.10;99.90
6822;DHT22;3449;48.728;8.968;2022-12-15T12:06:57;0.00;99.90
6822;DHT22;3449;48.728;8.968;2022-12-15T12:09:32;0.10;99.90
6822;DHT22;3449;48.728;8.968;2022-12-15T12:12:09;0.10;99.90
6822;DHT22;3449;48.728;8.968;2022-12-15T12:14:47;0.10;99.90
6822;DHT22;3449;48.728;8.968;2022-12-15T12:17:21;0.30;99.90
6822;DHT22;3449;48.728;8.968;2022-12-15T12:19:56;0.10;99.90
6822;DHT22;3449;48.728;8.968;2022-12-15T12:22:27;0.30;99.90
6822;DHT22;3449;48.728;8.968;2022-12-15T12:24:58;0.40;99.90
6822;DHT22;3449;48.728;8.968;2022-12-15T12:27:34;0.40;99.90
6822;DHT22;3449;48.728;8.968;2022-12-15T12:30:10;0.60;99.90
6822;DHT22;3449;48.728;8.968;2022-12-15T12:32:43;0.70;99.90
6822;DHT22;3449;48.728;8.968;2022-12-15T12:35:16;0.80;99.90
6822;DHT22;3449;48.728;8.968;2022-12-15T12:37:51;0.90;99.90
6822;DHT22;3449;48.728;8.968;2022-12-15T12:40:23;0.60;99.90
6822;DHT22;3449;48.728;8.968;2022-12-15T12:42:54;0.40;99.90
6822;DHT22;3449;48.728;8.968;2022-12-15T12:45:25;0.50;99.90
6822;DHT22;3449;48.728;8.968;2022-12-15T12:47:55;0.30;99.90
6822;DHT22;3449;48.728;8.968;2022-12-15T12:50:25;0.40;99.90
6822;DHT22;3449;48.728;8.968;2022-12-15T12:52:56;0.60;99.90
6822;DHT22;3449;48.728;8.968;2022-12-15T12:55:26;0.70;99.90
6822;DHT22;3449;48.728;8.968;2022-12-15T12:57:55;0.70;99.90
6822;DHT22;3449;48.728;8.968;2022-12-15T13:00:24;0.70;99.90
6822;DHT22;3449;48.728;8.968;2022-12-15T13:03:13;0.70;99.90
6822;DHT22;3449;48.728;8.968;2022-12-15T13:05:43;0.50;99.90
6822;DHT22;3449;48.728;8.968;2022-12-15T13:14:34;-0.20;99.90
6822;DHT22;3449;48.728;8.968;2022-12-15T13:17:05;-0.30;99.90
6822;DHT22;3449;48.728;8.968;2022-12-15T13:20:06;-0.30;99.90
6822;DHT22;3449;48.728;8.968;2022-12-15T13:22:37;-0.20;99.90
6822;DHT22;3449;48.728;8.968;2022-12-15T13:28:40;-0.10;99.90
6822;DHT22;3449;48.728;8.968;2022-12-15T13:31:27;0.00;99.90
6822;DHT22;3449;48.728;8.968;2022-12-15T13:34:09;-0.20;99.90
6822;DHT22;3449;48.728;8.968;2022-12-15T13:37:01;-0.20;99.90
6822;DHT22;3449;48.728;8.968;2022-12-15T13:39:50;-0.20;99.90
6822;DHT22;3449;48.728;8.968;2022-12-15T13:42:30;-0.20;99.90
6822;DHT22;3449;48.728;8.968;2022-12-15T13:48:29;-0.20;99.90
6822;DHT22;3449;48.728;8.968;2022-12-15T13:51:16;-0.20;99.90
6822;DHT22;3449;48.728;8.968;2022-12-15T13:53:47;-0.30;99.90
6822;DHT22;3449;48.728;8.968;2022-12-15T13:56:23;-0.30;99.90
6822;DHT22;3449;48.728;8.968;2022-12-15T13:58:56;-0.40;99.90
6822;DHT22;3449;48.728;8.968;2022-12-15T14:01:28;-0.40;99.90
6822;DHT22;3449;48.728;8.968;2022-12-15T14:04:04;-0.60;99.90
6822;DHT22;3449;48.728;8.968;2022-12-15T14:06:35;-0.70;99.90
6822;DHT22;3449;48.728;8.968;2022-12-15T14:09:03;-0.60;99.90
6822;DHT22;3449;48.728;8.968;2022-12-15T14:11:33;-0.80;99.90
6822;DHT22;3449;48.728;8.968;2022-12-15T14:14:01;-0.80;99.90
6822;DHT22;3449;48.728;8.968;2022-12-15T14:16:32;-0.90;99.90
6822;DHT22;3449;48.728;8.968;2022-12-15T14:19:12;-0.90;99.90
6822;DHT22;3449;48.728;8.968;2022-12-15T14:21:39;-0.90;99.90
6822;DHT22;3449;48.728;8.968;2022-12-15T14:24:21;-0.90;99.90
6822;DHT22;3449;48.728;8.968;2022-12-15T14:26:50;-0.90;99.90
6822;DHT22;3449;48.728;8.968;2022-12-15T14:29:18;-0.90;99.90
6822;DHT22;3449;48.728;8.968;2022-12-15T14:31:49;-0.90;99.90
6822;DHT22;3449;48.728;8.968;2022-12-15T14:34:23;-0.90;99.90
6822;DHT22;3449;48.728;8.968;2022-12-15T14:36:52;-0.90;99.90
6822;DHT22;3449;48.728;8.968;2022-12-15T14:39:23;-0.90;99.90
6822;DHT22;3449;48.728;8.968;2022-12-15T14:41:53;-0.90;99.90
6822;DHT22;3449;48.728;8.968;2022-12-15T14:44:36;-0.90;99.90
6822;DHT22;3449;48.728;8.968;2022-12-15T14:47:05;-0.90;99.90
6822;DHT22;3449;48.728;8.968;2022-12-15T14:49:38;-0.90;99.90
6822;DHT22;3449;48.728;8.968;2022-12-15T14:52:11;-0.90;99.90
6822;DHT22;3449;48.728;8.968;2022-12-15T14:54:50;-0.90;99.90
6822;DHT22;3449;48.728;8.968;2022-12-15T14:57:21;-0.90;99.90
6822;DHT22;3449;48.728;8.968;2022-12-15T14:59:48;-1.00;99.90
6822;DHT22;3449;48.728;8.968;2022-12-15T15:02:20;-1.00;99.90
6822;DHT22;3449;48.728;8.968;2022-12-15T15:04:56;-1.00;99.90
6822;DHT22;3449;48.728;8.968;2022-12-15T15:07:25;-1.10;99.90
6822;DHT22;3449;48.728;8.968;2022-12-15T15:09:53;-1.10;99.90
6822;DHT22;3449;48.728;8.968;2022-12-15T15:12:21;-1.20;99.90
6822;DHT22;3449;48.728;8.968;2022-12-15T15:14:51;-1.30;99.90
6822;DHT22;3449;48.728;8.968;2022-12-15T15:17:25;-1.30;99.90
6822;DHT22;3449;48.728;8.968;2022-12-15T15:19:56;-1.30;99.90
6822;DHT22;3449;48.728;8.968;2022-12-15T15:22:37;-1.30;99.90
6822;DHT22;3449;48.728;8.968;2022-12-15T15:25:27;-1.30;99.90
6822;DHT22;3449;48.728;8.968;2022-12-15T15:28:02;-1.30;99.90
6822;DHT22;3449;48.728;8.968;2022-12-15T15:30:41;-1.30;99.90
6822;DHT22;3449;48.728;8.968;2022-12-15T15:33:08;-1.40;99.90
6822;DHT22;3449;48.728;8.968;2022-12-15T15:35:40;-1.40;99.90
6822;DHT22;3449;48.728;8.968;2022-12-15T15:38:15;-1.40;99.90
6822;DHT22;3449;48.728;8.968;2022-12-15T15:40:50;-1.40;99.90
6822;DHT22;3449;48.728;8.968;2022-12-15T15:43:17;-1.40;99.90
6822;DHT22;3449;48.728;8.968;2022-12-15T15:45:45;-1.40;99.90
6822;DHT22;3449;48.728;8.968;2022-12-15T15:48:17;-1.40;99.90
6822;DHT22;3449;48.728;8.968;2022-12-15T15:50:48;-1.40;99.90
6822;DHT22;3449;48.728;8.968;2022-12-15T15:53:17;-1.40;99.90
6822;DHT22;3449;48.728;8.968;2022-12-15T15:55:46;-1.40;99.90
6822;DHT22;3449;48.728;8.968;2022-12-15T15:58:15;-1.40;99.90
6822;DHT22;3449;48.728;8.968;2022-12-15T16:00:42;-1.30;99.90
6822;DHT22;3449;48.728;8.968;2022-12-15T16:03:09;-1.40;99.90
6822;DHT22;3449;48.728;8.968;2022-12-15T16:05:36;-1.40;99.90
6822;DHT22;3449;48.728;8.968;2022-12-15T16:08:05;-1.40;99.90
6822;DHT22;3449;48.728;8.968;2022-12-15T16:10:33;-1.40;99.90
6822;DHT22;3449;48.728;8.968;2022-12-15T16:13:00;-1.40;99.90
6822;DHT22;3449;48.728;8.968;2022-12-15T16:15:28;-1.40;99.90
6822;DHT22;3449;48.728;8.968;2022-12-15T16:17:57;-1.40;99.90
6822;DHT22;3449;48.728;8.968;2022-12-15T16:20:27;-1.40;99.90
6822;DHT22;3449;48.728;8.968;2022-12-15T16:22:58;-1.40;99.90
6822;DHT22;3449;48.728;8.968;2022-12-15T16:25:29;-1.40;99.90
6822;DHT22;3449;48.728;8.968;2022-12-15T16:27:57;-1.40;99.90
6822;DHT22;3449;48.728;8.968;2022-12-15T16:30:25;-1.40;99.90
6822;DHT22;3449;48.728;8.968;2022-12-15T16:32:54;-1.40;99.90
6822;DHT22;3449;48.728;8.968;2022-12-15T16:35:23;-1.40;99.90
6822;DHT22;3449;48.728;8.968;2022-12-15T16:37:51;-1.40;99.90
6822;DHT22;3449;48.728;8.968;2022-12-15T16:40:20;-1.40;99.90
6822;DHT22;3449;48.728;8.968;2022-12-15T16:42:53;-1.40;99.90
6822;DHT22;3449;48.728;8.968;2022-12-15T16:45:22;-1.40;99.90
6822;DHT22;3449;48.728;8.968;2022-12-15T16:47:50;-1.40;99.90
6822;DHT22;3449;48.728;8.968;2022-12-15T16:50:20;-1.40;99.90
6822;DHT22;3449;48.728;8.968;2022-12-15T16:52:49;-1.40;99.90
6822;DHT22;3449;48.728;8.968;2022-12-15T16:55:23;-1.30;99.90